Abbot, Maine
Current Conditions -  °F | °C
As of 12:15 PM on Thursday 23 Oct 2014 (Local Time) from KWVL Reporting Station
Overcast Overcast  
Wind Chill: 42°   Ceiling: 800
Heat Index: 48°   Visibility: 10mi
Dew Point: 45°   Wind: 15mph
Humidity: 87%   Direction: 30°NNE
Pressure: 29.84"   Gusts: 29mph
Location:  44.94°N, 69.7°W
Report Text: KWVL 231615Z 03013G25KT 10SM OVC008 09/07 A2984 RMK AO1 P0001
Loading
Personal Weather Stations






























Interactive Weather Map
Tropical Storm Tracking
New forecast layout! Learn more

10-Day Weather Forecast

Advertisements
Track Severe Weather on mobile